createdAt,value
2016-08-17T00:00:39.454Z,15.57
2016-08-17T00:01:39.424Z,15.59
2016-08-17T00:02:39.403Z,15.59
2016-08-17T00:03:39.384Z,15.54
2016-08-17T00:04:39.357Z,15.54
2016-08-17T00:05:39.335Z,15.49
2016-08-17T00:06:39.311Z,15.49
2016-08-17T00:07:39.290Z,15.55
2016-08-17T00:08:39.267Z,15.46
2016-08-17T00:09:39.244Z,15.49
2016-08-17T00:10:39.220Z,15.47
2016-08-17T00:11:39.199Z,15.44
2016-08-17T00:12:39.870Z,15.46
2016-08-17T00:13:39.165Z,15.51
2016-08-17T00:14:39.127Z,15.43
2016-08-17T00:15:39.107Z,15.47
2016-08-17T00:16:39.085Z,15.47
2016-08-17T00:17:39.060Z,15.43
2016-08-17T00:18:39.040Z,15.44
2016-08-17T00:19:39.017Z,15.42
2016-08-17T00:20:38.998Z,15.39
2016-08-17T00:21:38.981Z,15.39
2016-08-17T00:22:38.950Z,15.36
2016-08-17T00:23:38.925Z,15.4
2016-08-17T00:24:38.905Z,15.42
2016-08-17T00:25:38.902Z,15.39
2016-08-17T00:26:39.549Z,15.36
2016-08-17T00:27:38.844Z,15.36
2016-08-17T00:28:38.817Z,15.39
2016-08-17T00:29:38.811Z,15.35
2016-08-17T00:30:38.769Z,15.36
2016-08-17T00:31:38.742Z,15.35
2016-08-17T00:32:38.724Z,15.35
2016-08-17T00:33:38.701Z,15.28
2016-08-17T00:34:38.676Z,15.28
2016-08-17T00:35:38.651Z,15.27
2016-08-17T00:36:38.630Z,15.27
2016-08-17T00:37:38.612Z,15.25
2016-08-17T00:38:38.586Z,15.19
2016-08-17T00:39:38.560Z,15.19
2016-08-17T00:40:38.540Z,15.17
2016-08-17T00:41:38.517Z,15.27
2016-08-17T00:42:38.493Z,15.22
2016-08-17T00:43:38.473Z,15.18
2016-08-17T00:44:38.451Z,15.19
2016-08-17T00:45:38.430Z,15.19
2016-08-17T00:46:38.403Z,15.17
2016-08-17T00:47:39.069Z,15.04
2016-08-17T00:48:38.353Z,15.21
2016-08-17T00:49:38.333Z,15.19
2016-08-17T00:50:38.308Z,15.06
2016-08-17T00:51:38.286Z,15.15
2016-08-17T00:52:38.266Z,15.14
2016-08-17T00:53:38.252Z,15.06
2016-08-17T00:54:38.225Z,15.11
2016-08-17T00:55:38.193Z,15.03
2016-08-17T00:56:38.173Z,15.02
2016-08-17T00:57:38.148Z,14.96
2016-08-17T00:58:38.124Z,15.06
2016-08-17T00:59:38.100Z,14.96
2016-08-17T01:00:38.080Z,14.92
2016-08-17T01:01:38.054Z,14.94
2016-08-17T01:02:38.031Z,15
2016-08-17T01:03:38.012Z,14.86
2016-08-17T01:04:37.983Z,14.85
2016-08-17T01:05:37.964Z,14.86
2016-08-17T01:06:37.941Z,14.92
2016-08-17T01:07:37.918Z,14.92
2016-08-17T01:08:37.891Z,14.91
2016-08-17T01:09:37.884Z,14.89
2016-08-17T01:10:37.846Z,14.89
2016-08-17T01:11:37.824Z,14.91
2016-08-17T01:12:37.800Z,14.84
2016-08-17T01:13:38.055Z,14.91
2016-08-17T01:14:37.756Z,14.89
2016-08-17T01:15:37.732Z,14.86
2016-08-17T01:16:37.705Z,14.86
2016-08-17T01:17:37.685Z,14.86
2016-08-17T01:18:37.663Z,14.77
2016-08-17T01:19:37.641Z,14.82
2016-08-17T01:20:37.612Z,14.68
2016-08-17T01:21:37.594Z,14.73
2016-08-17T01:22:37.569Z,14.78
2016-08-17T01:23:37.543Z,14.66
2016-08-17T01:24:37.522Z,14.78
2016-08-17T01:25:37.511Z,14.72
2016-08-17T01:26:37.474Z,14.68
2016-08-17T01:27:37.453Z,14.7
2016-08-17T01:28:37.430Z,14.63
2016-08-17T01:29:37.403Z,14.62
2016-08-17T01:30:37.381Z,14.58
2016-08-17T01:31:37.361Z,14.58
2016-08-17T01:32:37.337Z,14.63
2016-08-17T01:33:37.316Z,14.62
2016-08-17T01:34:37.291Z,14.63
2016-08-17T01:35:37.955Z,14.55
2016-08-17T01:36:37.241Z,14.59
2016-08-17T01:37:37.217Z,14.58
2016-08-17T01:38:37.193Z,14.62
2016-08-17T01:39:37.171Z,14.59
2016-08-17T01:40:37.153Z,14.55
2016-08-17T01:41:37.818Z,14.55
2016-08-17T01:42:37.099Z,14.6
2016-08-17T01:43:37.079Z,14.55
2016-08-17T01:44:37.056Z,14.48
2016-08-17T01:45:37.037Z,14.51
2016-08-17T01:46:37.007Z,14.48
2016-08-17T01:47:36.983Z,14.51
2016-08-17T01:48:36.960Z,14.47
2016-08-17T01:49:36.939Z,14.47
2016-08-17T01:50:36.915Z,14.5
2016-08-17T01:51:36.915Z,14.51
2016-08-17T01:52:36.866Z,14.45
2016-08-17T01:53:36.846Z,14.44
2016-08-17T01:54:36.820Z,14.4
2016-08-17T01:55:36.798Z,14.3
2016-08-17T01:56:36.774Z,14.41
2016-08-17T01:57:36.753Z,14.3
2016-08-17T01:58:36.727Z,14.41
2016-08-17T01:59:36.705Z,14.41
2016-08-17T02:00:36.683Z,14.4
2016-08-17T02:01:36.656Z,14.37
2016-08-17T02:02:36.631Z,14.32
2016-08-17T02:03:36.607Z,14.35
2016-08-17T02:04:36.586Z,14.36
2016-08-17T02:05:36.561Z,14.4
2016-08-17T02:06:36.536Z,14.36
2016-08-17T02:07:36.518Z,14.25
2016-08-17T02:08:36.493Z,14.22
2016-08-17T02:09:36.469Z,14.28
2016-08-17T02:10:36.446Z,14.22
2016-08-17T02:11:36.421Z,14.15
2016-08-17T02:12:36.403Z,14.2
2016-08-17T02:13:36.376Z,14.22
2016-08-17T02:14:36.350Z,14.2
2016-08-17T02:15:36.326Z,14.15
2016-08-17T02:16:36.309Z,14.12
2016-08-17T02:17:36.278Z,14.17
2016-08-17T02:18:36.253Z,14.18
2016-08-17T02:19:36.233Z,14.11
2016-08-17T02:20:36.210Z,14.08
2016-08-17T02:21:36.202Z,14.11
2016-08-17T02:22:36.159Z,14.12
2016-08-17T02:23:36.142Z,14.07
2016-08-17T02:24:36.113Z,14.14
2016-08-17T02:25:36.089Z,14.18
2016-08-17T02:26:36.066Z,14.05
2016-08-17T02:27:36.038Z,14.04
2016-08-17T02:28:36.022Z,14.08
2016-08-17T02:29:35.993Z,14.04
2016-08-17T02:30:35.972Z,14.04
2016-08-17T02:31:35.944Z,14.03
2016-08-17T02:32:35.921Z,14.11
2016-08-17T02:33:35.898Z,14.04
2016-08-17T02:34:35.881Z,14.05
2016-08-17T02:35:35.848Z,13.95
2016-08-17T02:36:35.844Z,13.96
2016-08-17T02:37:35.804Z,13.97
2016-08-17T02:38:35.779Z,13.99
2016-08-17T02:39:35.752Z,13.99
2016-08-17T02:40:35.746Z,14.03
2016-08-17T02:41:35.709Z,13.97
2016-08-17T02:42:35.684Z,14
2016-08-17T02:43:35.660Z,13.97
2016-08-17T02:44:35.636Z,13.95
2016-08-17T02:45:35.614Z,13.96
2016-08-17T02:46:35.589Z,13.97
2016-08-17T02:47:35.567Z,13.93
2016-08-17T02:48:35.541Z,13.86
2016-08-17T02:49:35.518Z,13.87
2016-08-17T02:50:35.493Z,13.86
2016-08-17T02:51:35.468Z,13.85
2016-08-17T02:52:35.446Z,13.85
2016-08-17T02:53:35.427Z,13.9
2016-08-17T02:54:35.396Z,13.86
2016-08-17T02:55:35.372Z,13.87
2016-08-17T02:56:35.347Z,13.81
2016-08-17T02:57:35.326Z,13.74
2016-08-17T02:58:35.305Z,13.85
2016-08-17T02:59:35.277Z,13.7
2016-08-17T03:00:35.252Z,13.79
2016-08-17T03:01:35.234Z,13.75
2016-08-17T03:02:35.208Z,13.78
2016-08-17T03:03:35.192Z,13.72
2016-08-17T03:04:35.158Z,13.77
2016-08-17T03:05:35.132Z,13.67
2016-08-17T03:06:35.108Z,13.7
2016-08-17T03:07:35.786Z,13.71
2016-08-17T03:08:35.060Z,13.68
2016-08-17T03:09:35.034Z,13.7
2016-08-17T03:10:35.027Z,13.68
2016-08-17T03:11:34.989Z,13.67
2016-08-17T03:12:34.970Z,13.72
2016-08-17T03:13:34.942Z,13.68
2016-08-17T03:14:34.915Z,13.62
2016-08-17T03:15:34.893Z,13.6
2016-08-17T03:16:34.869Z,13.62
2016-08-17T03:17:34.846Z,13.65
2016-08-17T03:18:34.826Z,13.54
2016-08-17T03:19:34.796Z,13.54
2016-08-17T03:20:34.774Z,13.57
2016-08-17T03:21:34.749Z,13.62
2016-08-17T03:22:34.726Z,13.62
2016-08-17T03:23:35.393Z,13.65
2016-08-17T03:24:34.673Z,13.6
2016-08-17T03:25:34.653Z,13.62
2016-08-17T03:26:34.635Z,13.62
2016-08-17T03:27:34.605Z,13.49
2016-08-17T03:28:34.579Z,13.53
2016-08-17T03:29:34.555Z,13.5
2016-08-17T03:30:34.532Z,13.49
2016-08-17T03:31:34.508Z,13.5
2016-08-17T03:32:34.484Z,13.5
2016-08-17T03:33:34.459Z,13.52
2016-08-17T03:34:34.432Z,13.5
2016-08-17T03:35:34.411Z,13.5
2016-08-17T03:36:34.386Z,13.41
2016-08-17T03:37:34.363Z,13.46
2016-08-17T03:38:34.339Z,13.5
2016-08-17T03:39:34.315Z,13.46
2016-08-17T03:40:34.306Z,13.46
2016-08-17T03:41:34.265Z,13.37
2016-08-17T03:42:34.943Z,13.38
2016-08-17T03:43:34.218Z,13.41
2016-08-17T03:44:34.197Z,13.41
2016-08-17T03:45:34.165Z,13.47
2016-08-17T03:46:34.145Z,13.41
2016-08-17T03:47:34.121Z,13.42
2016-08-17T03:48:34.097Z,13.3
2016-08-17T03:49:34.085Z,13.37
2016-08-17T03:50:34.052Z,13.33
2016-08-17T03:51:34.022Z,13.33
2016-08-17T03:52:33.998Z,13.31
2016-08-17T03:53:33.982Z,13.37
2016-08-17T03:54:33.956Z,13.33
2016-08-17T03:55:33.924Z,13.28
2016-08-17T03:56:33.900Z,13.35
2016-08-17T03:57:34.583Z,13.31
2016-08-17T03:58:33.852Z,13.28
2016-08-17T03:59:33.832Z,13.31
2016-08-17T04:00:33.801Z,13.3
2016-08-17T04:01:33.778Z,13.2
2016-08-17T04:02:33.754Z,13.25
2016-08-17T04:03:33.743Z,13.23
2016-08-17T04:04:33.705Z,13.19
2016-08-17T04:05:33.678Z,13.2
2016-08-17T04:06:33.663Z,13.16
2016-08-17T04:07:33.633Z,13.19
2016-08-17T04:08:33.608Z,13.19
2016-08-17T04:09:33.583Z,13.16
2016-08-17T04:10:33.560Z,13.11
2016-08-17T04:11:33.534Z,13.13
2016-08-17T04:12:33.513Z,13.03
2016-08-17T04:13:33.497Z,13.16
2016-08-17T04:14:33.461Z,13.16
2016-08-17T04:15:33.435Z,13.18
2016-08-17T04:16:33.411Z,13.05
2016-08-17T04:17:33.391Z,13.16
2016-08-17T04:18:33.363Z,13.16
2016-08-17T04:19:33.339Z,13.19
2016-08-17T04:20:33.314Z,13.12
2016-08-17T04:21:33.290Z,13.09
2016-08-17T04:22:33.261Z,13.05
2016-08-17T04:23:33.241Z,13.13
2016-08-17T04:24:33.216Z,13.05
2016-08-17T04:25:33.195Z,13.09
2016-08-17T04:26:33.865Z,13.05
2016-08-17T04:27:33.144Z,13.13
2016-08-17T04:28:33.119Z,13.13
2016-08-17T04:29:33.093Z,13.11
2016-08-17T04:30:33.069Z,13.05
2016-08-17T04:31:33.045Z,13.15
2016-08-17T04:32:33.019Z,13.16
2016-08-17T04:33:32.996Z,13.13
2016-08-17T04:34:32.979Z,13.18
2016-08-17T04:35:32.947Z,13.16
2016-08-17T04:36:32.930Z,13.16
2016-08-17T04:37:32.897Z,13.13
2016-08-17T04:38:32.874Z,13.18
2016-08-17T04:39:32.851Z,13.13
2016-08-17T04:40:32.825Z,13.15
2016-08-17T04:41:32.798Z,13.16
2016-08-17T04:42:32.776Z,13.15
2016-08-17T04:43:32.755Z,13.22
2016-08-17T04:44:32.738Z,13.16
2016-08-17T04:45:33.507Z,13.15
2016-08-17T04:46:32.677Z,13.15
2016-08-17T04:47:32.661Z,13.16
2016-08-17T04:48:32.630Z,13.15
2016-08-17T04:49:32.885Z,13.16
2016-08-17T04:50:32.583Z,13.13
2016-08-17T04:51:32.555Z,13.19
2016-08-17T04:52:32.534Z,13.22
2016-08-17T04:53:32.507Z,13.15
2016-08-17T04:54:32.483Z,13.13
2016-08-17T04:55:32.466Z,13.22
2016-08-17T04:56:32.531Z,13.22
2016-08-17T04:57:32.409Z,13.28
2016-08-17T04:58:33.300Z,13.19
2016-08-17T04:59:32.363Z,13.23
2016-08-17T05:00:32.338Z,13.31
2016-08-17T05:01:32.717Z,13.25
2016-08-17T05:02:32.292Z,13.35
2016-08-17T05:03:32.263Z,13.33
2016-08-17T05:04:32.241Z,13.3
2016-08-17T05:05:32.217Z,13.3
2016-08-17T05:06:32.192Z,13.31
2016-08-17T05:07:32.172Z,13.27
2016-08-17T05:08:32.150Z,13.37
2016-08-17T05:09:32.125Z,13.33
2016-08-17T05:10:32.095Z,13.35
2016-08-17T05:11:32.465Z,13.33
2016-08-17T05:12:32.047Z,13.44
2016-08-17T05:13:32.029Z,13.31
2016-08-17T05:14:32.765Z,13.46
2016-08-17T05:15:32.728Z,13.39
2016-08-17T05:16:31.950Z,13.38
2016-08-17T05:17:31.924Z,13.44
2016-08-17T05:18:31.901Z,13.49
2016-08-17T05:19:31.878Z,13.5
2016-08-17T05:20:32.336Z,13.5
2016-08-17T05:21:32.061Z,13.47
2016-08-17T05:22:32.075Z,13.46
2016-08-17T05:23:32.149Z,13.49
2016-08-17T05:24:31.759Z,13.57
2016-08-17T05:25:31.735Z,13.57
2016-08-17T05:26:31.711Z,13.68
2016-08-17T05:27:31.692Z,13.57
2016-08-17T05:28:31.750Z,13.6
2016-08-17T05:29:31.638Z,13.67
2016-08-17T05:30:31.617Z,13.68
2016-08-17T05:31:31.595Z,13.7
2016-08-17T05:32:31.566Z,13.77
2016-08-17T05:33:31.543Z,13.77
2016-08-17T05:34:31.519Z,13.78
2016-08-17T05:35:31.495Z,13.81
2016-08-17T05:36:31.473Z,13.81
2016-08-17T05:37:31.446Z,13.86
2016-08-17T05:38:31.430Z,13.9
2016-08-17T05:39:31.402Z,13.96
2016-08-17T05:40:31.379Z,13.95
2016-08-17T05:41:31.725Z,13.97
2016-08-17T05:42:31.333Z,14.04
2016-08-17T05:43:31.305Z,14.03
2016-08-17T05:44:31.318Z,13.95
2016-08-17T05:45:31.259Z,14
2016-08-17T05:46:31.233Z,13.92
2016-08-17T05:47:31.407Z,14.03
2016-08-17T05:48:31.282Z,13.99
2016-08-17T05:49:31.169Z,14.1
2016-08-17T05:50:31.137Z,14.12
2016-08-17T05:51:31.114Z,14.12
2016-08-17T05:52:31.094Z,14.12
2016-08-17T05:53:31.076Z,14.12
2016-08-17T05:54:31.107Z,14.26
2016-08-17T05:55:31.079Z,14.22
2016-08-17T05:56:31.571Z,14.22
2016-08-17T05:57:30.978Z,14.33
2016-08-17T05:58:30.981Z,14.23
2016-08-17T05:59:30.952Z,14.29
2016-08-17T06:00:30.909Z,14.33
2016-08-17T06:01:30.894Z,14.4
2016-08-17T06:02:30.859Z,14.3
2016-08-17T06:03:31.106Z,14.51
2016-08-17T06:04:32.169Z,14.48
2016-08-17T06:05:31.042Z,14.5
2016-08-17T06:06:30.993Z,14.47
2016-08-17T06:07:31.026Z,14.47
2016-08-17T06:08:30.726Z,14.48
2016-08-17T06:09:30.702Z,14.59
2016-08-17T06:10:30.686Z,14.51
2016-08-17T06:11:30.650Z,14.59
2016-08-17T06:12:30.630Z,14.65
2016-08-17T06:13:30.861Z,14.73
2016-08-17T06:14:31.071Z,14.79
2016-08-17T06:15:30.807Z,14.77
2016-08-17T06:16:30.745Z,14.91
2016-08-17T06:17:30.958Z,14.84
2016-08-17T06:18:30.908Z,14.94
2016-08-17T06:19:30.666Z,15.1
2016-08-17T06:20:31.479Z,15.1
2016-08-17T06:21:30.742Z,15.18
2016-08-17T06:22:31.227Z,15.17
2016-08-17T06:23:30.538Z,15.36
2016-08-17T06:24:30.737Z,15.29
2016-08-17T06:25:30.651Z,15.33
2016-08-17T06:26:30.733Z,15.42
2016-08-17T06:27:31.599Z,15.44
2016-08-17T06:28:30.411Z,15.43
2016-08-17T06:29:30.270Z,15.61
2016-08-17T06:30:30.573Z,15.67
2016-08-17T06:31:30.698Z,15.72
2016-08-17T06:32:30.201Z,15.67
2016-08-17T06:33:31.069Z,15.8
2016-08-17T06:34:30.163Z,15.86
2016-08-17T06:35:30.145Z,15.98
2016-08-17T06:36:30.124Z,16.05
2016-08-17T06:37:30.341Z,16.16
2016-08-17T06:38:30.180Z,16.24
2016-08-17T06:39:30.385Z,16.33
2016-08-17T06:40:30.318Z,16.32
2016-08-17T06:41:30.370Z,16.38
2016-08-17T06:42:30.433Z,16.41
2016-08-17T06:43:30.203Z,16.51
2016-08-17T06:44:29.970Z,16.6
2016-08-17T06:45:29.958Z,16.72
2016-08-17T06:46:29.944Z,16.78
2016-08-17T06:47:29.916Z,16.86
2016-08-17T06:48:29.896Z,16.93
2016-08-17T06:49:29.887Z,16.96
2016-08-17T06:50:29.868Z,17.06
2016-08-17T06:51:29.841Z,17.04
2016-08-17T06:52:29.825Z,17.15
2016-08-17T06:53:30.027Z,17.24
2016-08-17T06:54:29.792Z,17.38
2016-08-17T06:55:29.904Z,17.42
2016-08-17T06:56:29.757Z,17.45
2016-08-17T06:57:29.736Z,17.65
2016-08-17T06:58:29.869Z,17.64
2016-08-17T06:59:29.843Z,17.78
2016-08-17T07:00:29.847Z,17.79
2016-08-17T07:01:29.669Z,17.72
2016-08-17T07:02:30.382Z,17.87
2016-08-17T07:03:29.631Z,17.87
2016-08-17T07:04:30.015Z,17.95
2016-08-17T07:05:30.621Z,17.95
2016-08-17T07:06:30.281Z,18
2016-08-17T07:07:29.892Z,18.07
2016-08-17T07:08:29.683Z,18.1
2016-08-17T07:09:30.431Z,18.03
2016-08-17T07:10:30.444Z,18.18
2016-08-17T07:11:29.924Z,18.16
2016-08-17T07:12:30.331Z,18.18
2016-08-17T07:13:30.529Z,18.19
2016-08-17T07:14:29.529Z,18.23
2016-08-17T07:15:29.432Z,18.2
2016-08-17T07:16:30.357Z,18.22
2016-08-17T07:17:31.141Z,18.31
2016-08-17T07:18:30.316Z,18.45
2016-08-17T07:19:30.551Z,18.44
2016-08-17T07:20:30.779Z,18.52
2016-08-17T07:21:30.726Z,18.52
2016-08-17T07:22:30.607Z,18.6
2016-08-17T07:23:30.614Z,18.65
2016-08-17T07:24:30.050Z,18.8
2016-08-17T07:25:30.021Z,18.68
2016-08-17T07:26:31.396Z,18.84
2016-08-17T07:27:29.902Z,18.99
2016-08-17T07:28:29.899Z,19.11
2016-08-17T07:29:30.397Z,19.21
2016-08-17T07:30:29.358Z,19.33
2016-08-17T07:31:30.319Z,19.4
2016-08-17T07:32:29.661Z,19.55
2016-08-17T07:33:29.795Z,19.59
2016-08-17T07:34:30.674Z,19.67
2016-08-17T07:35:30.224Z,19.86
2016-08-17T07:36:29.945Z,19.95
2016-08-17T07:37:30.047Z,20.03
2016-08-17T07:38:29.804Z,20.18
2016-08-17T07:39:29.334Z,20.22
2016-08-17T07:40:29.443Z,20.21
2016-08-17T07:41:29.305Z,20.26
2016-08-17T07:42:29.536Z,20.39
2016-08-17T07:43:29.522Z,20.41
2016-08-17T07:44:29.732Z,20.43
2016-08-17T07:45:31.375Z,20.56
2016-08-17T07:46:29.729Z,20.56
2016-08-17T07:47:29.535Z,20.65
2016-08-17T07:48:29.171Z,20.75
2016-08-17T07:49:29.271Z,20.78
2016-08-17T07:50:29.875Z,20.72
2016-08-17T07:51:30.565Z,20.84
2016-08-17T07:52:31.897Z,20.95
2016-08-17T07:53:31.437Z,20.93
2016-08-17T07:54:29.492Z,20.97
2016-08-17T07:55:31.362Z,21.06
2016-08-17T07:56:29.893Z,21.12
2016-08-17T07:57:30.014Z,21.15
2016-08-17T07:58:30.086Z,21.15
2016-08-17T07:59:30.154Z,21.32
2016-08-17T08:00:30.018Z,21.24
2016-08-17T08:01:30.294Z,21.32
2016-08-17T08:02:30.468Z,21.29
2016-08-17T08:03:30.211Z,21.2
2016-08-17T08:04:30.639Z,21.36
2016-08-17T08:05:30.031Z,21.48
2016-08-17T08:06:29.727Z,21.5
2016-08-17T08:07:30.190Z,21.37
2016-08-17T08:08:30.044Z,21.57
2016-08-17T08:09:29.901Z,21.67
2016-08-17T08:10:30.016Z,21.67
2016-08-17T08:11:30.812Z,21.85
2016-08-17T08:12:30.209Z,21.93
2016-08-17T08:13:29.206Z,22.06
2016-08-17T08:14:30.006Z,22.13
2016-08-17T08:15:29.505Z,22.23
2016-08-17T08:16:28.808Z,22.28
2016-08-17T08:17:28.818Z,22.44
2016-08-17T08:18:29.536Z,22.47
2016-08-17T08:19:29.213Z,22.53
2016-08-17T08:20:29.400Z,22.69
2016-08-17T08:21:28.696Z,22.8
2016-08-17T08:22:28.961Z,22.91
2016-08-17T08:23:28.936Z,23.02
2016-08-17T08:24:29.377Z,23.05
2016-08-17T08:25:28.870Z,23.05
2016-08-17T08:26:29.505Z,23.15
2016-08-17T08:27:28.673Z,23.21
2016-08-17T08:28:28.786Z,23.21
2016-08-17T08:29:28.687Z,23.21
2016-08-17T08:30:29.173Z,23.32
2016-08-17T08:31:29.957Z,23.4
2016-08-17T08:32:30.701Z,23.41
2016-08-17T08:33:30.328Z,23.43
2016-08-17T08:34:29.625Z,23.46
2016-08-17T08:35:29.201Z,23.54
2016-08-17T08:36:29.431Z,23.51
2016-08-17T08:37:28.448Z,23.55
2016-08-17T08:38:28.663Z,23.5
2016-08-17T08:39:28.884Z,23.5
2016-08-17T08:40:29.040Z,23.44
2016-08-17T08:41:28.453Z,23.44
2016-08-17T08:42:28.553Z,23.5
2016-08-17T08:43:28.727Z,23.55
2016-08-17T08:44:28.569Z,23.66
2016-08-17T08:45:28.735Z,23.65
2016-08-17T08:46:28.426Z,23.66
2016-08-17T08:47:28.288Z,23.69
2016-08-17T08:48:28.220Z,23.84
2016-08-17T08:49:28.721Z,23.8
2016-08-17T08:50:28.201Z,23.93
2016-08-17T08:51:28.195Z,24.02
2016-08-17T08:52:28.184Z,24.14
2016-08-17T08:53:28.172Z,24.32
2016-08-17T08:54:28.165Z,24.53
2016-08-17T08:55:28.612Z,24.76
2016-08-17T08:56:29.529Z,24.69
2016-08-17T08:57:28.136Z,24.77
2016-08-17T08:58:28.131Z,24.61
2016-08-17T08:59:28.470Z,24.65
2016-08-17T09:00:28.112Z,24.73
2016-08-17T09:01:28.194Z,24.65
2016-08-17T09:02:28.097Z,24.61
2016-08-17T09:03:28.173Z,24.69
2016-08-17T09:04:29.268Z,24.86
2016-08-17T09:05:28.151Z,24.92
2016-08-17T09:06:28.161Z,24.88
2016-08-17T09:07:28.054Z,24.91
2016-08-17T09:08:28.119Z,24.99
2016-08-17T09:09:28.165Z,24.81
2016-08-17T09:10:28.281Z,24.86
2016-08-17T09:11:29.066Z,24.92
2016-08-17T09:12:28.167Z,24.95
2016-08-17T09:13:28.127Z,24.95
2016-08-17T09:14:28.001Z,24.86
2016-08-17T09:15:27.991Z,24.86
2016-08-17T09:16:28.293Z,24.8
2016-08-17T09:17:27.987Z,24.84
2016-08-17T09:18:28.305Z,24.85
2016-08-17T09:19:28.116Z,24.92
2016-08-17T09:20:27.979Z,24.92
2016-08-17T09:21:28.011Z,24.69
2016-08-17T09:22:28.767Z,24.73
2016-08-17T09:23:29.664Z,24.68
2016-08-17T09:24:28.255Z,24.73
2016-08-17T09:25:28.238Z,24.76
2016-08-17T09:26:28.261Z,24.78
2016-08-17T09:27:28.219Z,24.86
2016-08-17T09:28:28.964Z,24.85
2016-08-17T09:29:28.997Z,24.88
2016-08-17T09:30:28.632Z,24.69
2016-08-17T09:31:28.664Z,24.77
2016-08-17T09:32:29.012Z,24.8
2016-08-17T09:33:28.404Z,24.81
2016-08-17T09:34:29.083Z,24.8
2016-08-17T09:35:28.459Z,24.86
2016-08-17T09:36:28.616Z,24.7
2016-08-17T09:37:29.012Z,24.73
2016-08-17T09:38:29.082Z,24.73
2016-08-17T09:39:28.454Z,24.54
2016-08-17T09:40:27.789Z,24.42
2016-08-17T09:41:27.874Z,24.33
2016-08-17T09:42:27.756Z,24.3
2016-08-17T09:43:27.739Z,24.38
2016-08-17T09:44:28.156Z,24.32
2016-08-17T09:45:28.193Z,24.38
2016-08-17T09:46:27.946Z,24.3
2016-08-17T09:47:27.704Z,24.13
2016-08-17T09:48:28.719Z,24.1
2016-08-17T09:49:27.662Z,24.03
2016-08-17T09:50:28.233Z,24.06
2016-08-17T09:51:27.651Z,24.02
2016-08-17T09:52:27.858Z,23.99
2016-08-17T09:53:27.671Z,23.92
2016-08-17T09:54:27.810Z,23.95
2016-08-17T09:55:27.579Z,23.91
2016-08-17T09:56:27.567Z,23.87
2016-08-17T09:57:28.102Z,23.77
2016-08-17T09:58:27.640Z,23.8
2016-08-17T09:59:27.689Z,23.77
2016-08-17T10:00:27.738Z,23.74
2016-08-17T10:01:27.492Z,23.77
2016-08-17T10:02:27.481Z,23.58
2016-08-17T10:03:27.467Z,23.58
2016-08-17T10:04:28.116Z,23.5
2016-08-17T10:05:27.725Z,23.47
2016-08-17T10:06:28.750Z,23.43
2016-08-17T10:07:27.735Z,23.32
2016-08-17T10:08:27.821Z,23.27
2016-08-17T10:09:27.543Z,23.15
2016-08-17T10:10:28.002Z,23.18
2016-08-17T10:11:27.642Z,23.17
2016-08-17T10:12:27.326Z,23.15
2016-08-17T10:13:27.481Z,23.23
2016-08-17T10:14:27.321Z,23.1
2016-08-17T10:15:27.455Z,23.13
2016-08-17T10:16:27.262Z,23.09
2016-08-17T10:17:27.247Z,22.99
2016-08-17T10:18:27.385Z,22.99
2016-08-17T10:19:27.221Z,22.98
2016-08-17T10:20:27.500Z,22.96
2016-08-17T10:21:28.325Z,22.87
2016-08-17T10:22:27.391Z,22.91
2016-08-17T10:23:28.267Z,22.9
2016-08-17T10:24:28.597Z,23
2016-08-17T10:25:27.135Z,23.05
2016-08-17T10:26:27.237Z,23.05
2016-08-17T10:27:27.125Z,22.99
2016-08-17T10:28:27.951Z,23.06
2016-08-17T10:29:27.205Z,23
2016-08-17T10:30:28.070Z,22.96
2016-08-17T10:31:27.778Z,22.94
2016-08-17T10:32:27.708Z,22.88
2016-08-17T10:33:27.071Z,22.85
2016-08-17T10:34:27.674Z,22.88
2016-08-17T10:35:27.467Z,22.88
2016-08-17T10:36:27.824Z,22.9
2016-08-17T10:37:27.269Z,22.87
2016-08-17T10:38:27.464Z,22.91
2016-08-17T10:39:28.040Z,22.85
2016-08-17T10:40:28.566Z,22.83
2016-08-17T10:41:26.860Z,22.76
2016-08-17T10:42:26.841Z,22.72
2016-08-17T10:43:27.331Z,22.78
2016-08-17T10:44:27.859Z,22.8
2016-08-17T10:45:27.331Z,22.78
2016-08-17T10:46:28.196Z,22.85
2016-08-17T10:47:27.289Z,22.87
2016-08-17T10:48:26.772Z,22.85
2016-08-17T10:49:26.728Z,22.96
2016-08-17T10:50:27.016Z,22.99
2016-08-17T10:51:26.704Z,22.99
2016-08-17T10:52:26.809Z,22.9
2016-08-17T10:53:27.792Z,22.91
2016-08-17T10:54:26.645Z,22.93
2016-08-17T10:55:26.630Z,22.85
2016-08-17T10:56:27.356Z,22.85
2016-08-17T10:57:27.881Z,22.94
2016-08-17T10:58:27.503Z,23.02
2016-08-17T10:59:26.813Z,23
2016-08-17T11:00:26.927Z,22.99
2016-08-17T11:01:26.738Z,23.09
2016-08-17T11:02:26.753Z,23.15
2016-08-17T11:03:26.731Z,23.2
2016-08-17T11:04:27.369Z,23.18
2016-08-17T11:05:27.018Z,23.1
2016-08-17T11:06:26.671Z,23.2
2016-08-17T11:07:26.616Z,23.32
2016-08-17T11:08:27.074Z,23.28
2016-08-17T11:09:26.398Z,23.32
2016-08-17T11:10:26.800Z,23.28
2016-08-17T11:11:26.435Z,23.32
2016-08-17T11:12:27.259Z,23.32
2016-08-17T11:13:26.699Z,23.34
2016-08-17T11:14:27.053Z,23.31
2016-08-17T11:15:26.792Z,23.39
2016-08-17T11:16:26.702Z,23.24
2016-08-17T11:17:27.480Z,23.31
2016-08-17T11:18:27.342Z,23.34
2016-08-17T11:19:26.279Z,23.28
2016-08-17T11:20:27.002Z,23.37
2016-08-17T11:21:27.040Z,23.37
2016-08-17T11:22:26.904Z,23.41
2016-08-17T11:23:27.408Z,23.48
2016-08-17T11:24:27.036Z,23.54
2016-08-17T11:25:26.376Z,23.56
2016-08-17T11:26:26.471Z,23.56
2016-08-17T11:27:27.907Z,23.59
2016-08-17T11:28:26.443Z,23.55
2016-08-17T11:29:26.146Z,23.61
2016-08-17T11:30:26.316Z,23.61
2016-08-17T11:31:27.162Z,23.59
2016-08-17T11:32:27.343Z,23.58
2016-08-17T11:33:26.236Z,23.56
2016-08-17T11:34:26.635Z,23.58
2016-08-17T11:35:26.942Z,23.59
2016-08-17T11:36:26.113Z,23.54
2016-08-17T11:37:26.012Z,23.63
2016-08-17T11:38:25.957Z,23.66
2016-08-17T11:39:25.914Z,23.63
2016-08-17T11:40:26.669Z,23.71
2016-08-17T11:41:26.886Z,23.81
2016-08-17T11:42:27.574Z,23.71
2016-08-17T11:43:27.468Z,23.76
2016-08-17T11:44:27.810Z,23.76
2016-08-17T11:45:28.019Z,23.76
2016-08-17T11:46:25.850Z,23.73
2016-08-17T11:47:25.881Z,23.74
2016-08-17T11:48:26.318Z,23.65
2016-08-17T11:49:25.755Z,23.66
2016-08-17T11:50:26.116Z,23.69
2016-08-17T11:51:25.796Z,23.66
2016-08-17T11:52:26.039Z,23.62
2016-08-17T11:53:26.019Z,23.62
2016-08-17T11:54:25.887Z,23.73
2016-08-17T11:55:25.992Z,23.78
2016-08-17T11:56:26.750Z,23.77
2016-08-17T11:57:26.089Z,23.84
2016-08-17T11:58:25.970Z,23.84
2016-08-17T11:59:27.024Z,23.88
2016-08-17T12:00:26.304Z,23.95
2016-08-17T12:01:26.210Z,23.93
2016-08-17T12:02:26.675Z,23.91
2016-08-17T12:03:26.561Z,23.96
2016-08-17T12:04:26.072Z,24.03
2016-08-17T12:05:26.539Z,23.96
2016-08-17T12:06:26.862Z,24.01
2016-08-17T12:07:26.057Z,23.99
2016-08-17T12:08:26.505Z,23.96
2016-08-17T12:09:26.295Z,23.99
2016-08-17T12:10:26.477Z,24.03
2016-08-17T12:11:26.004Z,24.14
2016-08-17T12:12:26.162Z,24.1
2016-08-17T12:13:26.057Z,24.11
2016-08-17T12:14:26.324Z,24.11
2016-08-17T12:15:25.687Z,24.17
2016-08-17T12:16:26.271Z,24.18
2016-08-17T12:17:25.980Z,24.2
2016-08-17T12:18:27.699Z,24.29
2016-08-17T12:19:27.597Z,24.26
2016-08-17T12:20:27.464Z,24.24
2016-08-17T12:21:27.366Z,24.24
2016-08-17T12:22:27.284Z,24.29
2016-08-17T12:23:28.089Z,24.3
2016-08-17T12:24:28.162Z,24.35
2016-08-17T12:25:27.927Z,24.32
2016-08-17T12:26:27.300Z,24.33
2016-08-17T12:27:28.068Z,24.3
2016-08-17T12:28:27.580Z,24.33
2016-08-17T12:29:27.165Z,24.42
2016-08-17T12:30:27.319Z,24.43
2016-08-17T12:31:26.892Z,24.51
2016-08-17T12:32:26.997Z,24.47
2016-08-17T12:33:27.440Z,24.57
2016-08-17T12:34:27.268Z,24.57
2016-08-17T12:35:27.568Z,24.54
2016-08-17T12:36:27.370Z,24.61
2016-08-17T12:37:25.266Z,24.63
2016-08-17T12:38:26.819Z,24.66
2016-08-17T12:39:27.906Z,24.57
2016-08-17T12:40:26.888Z,24.63
2016-08-17T12:41:27.971Z,24.68
2016-08-17T12:42:27.966Z,24.66
2016-08-17T12:43:26.319Z,24.66
2016-08-17T12:44:26.869Z,24.65
2016-08-17T12:45:25.855Z,24.74
2016-08-17T12:46:28.139Z,24.69
2016-08-17T12:47:26.272Z,24.81
2016-08-17T12:48:26.605Z,24.98
2016-08-17T12:49:27.545Z,24.86
2016-08-17T12:50:26.794Z,24.89
2016-08-17T12:51:28.112Z,24.84
2016-08-17T12:52:27.788Z,24.91
2016-08-17T12:53:26.704Z,24.91
2016-08-17T12:54:27.149Z,24.89
2016-08-17T12:55:27.432Z,24.89